Kellyville, Oklahoma
Current Conditions -  °F | °C
As of 12:08 PM on Thursday 23 Oct 2014 (Local Time) from KRVS Reporting Station
Overcast Overcast  
Wind Chill: 60°   Ceiling: 1400
Heat Index: 60°   Visibility: 10mi
Dew Point: 57°   Wind: 8mph
Humidity: 90%   Direction: 170°S
Pressure: 30.17"   Gusts: NA
Location:  35.94°N, 96.21°W
Report Text: KRVS 231708Z 17007KT 10SM OVC014 16/14 A3017 RMK AO2 RAB03E07 P0000 T01560139
Loading
Personal Weather Stations






























Interactive Weather Map
Tropical Storm Tracking
New forecast layout! Learn more

10-Day Weather Forecast

Advertisements
Track Severe Weather on mobile